Epe, Netherlands
Current Conditions -  °F | °C
As of 2:25 PM on Friday 24 Oct 2014 (Local Time) from EHDL Reporting Station
Overcast Overcast  
Wind Chill: 52°   Ceiling: 1200
Heat Index: 52°   Visibility: 6mi
Dew Point: 50°   Wind: 12mph
Humidity: 94%   Direction: 180°S
Pressure: 30.06"   Gusts: NA
Location:  52.35°N, 5.98°E
Report Text: EHDL 241225Z AUTO 18010KT 9999 SCT010 BKN012 OVC020 11/10 Q1018 GRN
Loading
Personal Weather Stations






























Interactive Weather Map New forecast layout! Learn more

10-Day Weather Forecast

Advertisements
Track Severe Weather on mobile